NCAR-RAP Real-Time Weather Data

Output produced by METARs form (08 May 2021  01:54 UTC)
found at http://weather.rap.ucar.edu/surface/
 
KBNA 080053Z VRB05KT 10SM CLR 17/03 A3003 RMK AO2 SLP167 T01720028
KBNA 072353Z 23005KT 10SM FEW085 19/02 A3004 RMK AO2 SLP170 T01940017 10217 20194 58017
KBNA 072253Z 25009KT 220V280 10SM FEW085 21/02 A3006 RMK AO2 SLP178 T02060022
KBNA 072153Z 28011G17KT 10SM SCT085 21/02 A3008 RMK AO2 SLP182 T02110017
KBNA 072053Z 30010G17KT 10SM SCT075 21/02 A3009 RMK AO2 SLP187 T02110022 58019
KBNA 071953Z 32009G16KT 10SM FEW075 21/03 A3011 RMK AO2 SLP194 T02060028
KBNA 071853Z 32009G14KT 10SM FEW070 20/03 A3013 RMK AO2 SLP202 T02000033
KBNA 071753Z 29009G16KT 10SM FEW060 19/02 A3015 RMK AO2 WSHFT 1718 SLP206 T01940022 10200 20094 58010
KBNA 071738Z 30008G20KT 260V330 10SM FEW060 19/03 A3015 RMK AO2 WSHFT 1718 T01940028
KBNA 071653Z 29009G16KT 10SM FEW055 18/04 A3017 RMK AO2 SLP213 T01830039
KBNA 071553Z 30008KT 10SM FEW050 17/04 A3018 RMK AO2 SLP216 T01720039
KBNA 071453Z 31008KT 10SM CLR 16/03 A3018 RMK AO2 SLP218 T01560033 50009
KBNA 071353Z 27007KT 10SM CLR 13/05 A3019 RMK AO2 SLP221 T01330050
KBNA 071253Z 30006KT 10SM CLR 11/06 A3018 RMK AO2 SLP218 T01110061 $
KBNA 071153Z 28005KT 10SM CLR 09/06 A3015 RMK AO2 SLP210 70028 T00940056 10106 20083 53019 $